Alpine, Virginia
Current Conditions -  °F | °C
As of 7:35 AM on Sunday 23 Nov 2014 (Local Time) from K8W2 Reporting Station
Clear Clear  
Wind Chill: 31°   Ceiling: Unl
Heat Index: 31°   Visibility: 10mi
Dew Point: 24°   Wind: 0mph
Humidity: 74%   Direction: NA
Pressure: 30.19"   Gusts: NA
Location:  38.6726°N, 78.6691°W
Report Text: K8W2 231235Z AUTO 00000KT 10SM CLR M01/M05 A3019 RMK AO1 T10061047
Loading
Personal Weather Stations






























Interactive Weather Map New forecast layout! Learn more

10-Day Weather Forecast

Advertisements
Track Severe Weather on mobile